Time;durP1;ratioP1;P1;durP2;ratioP2;P2;SDS_P1;SDS_P2;PMS_P1;PMS_P2;Temp;Humidity;BMP_temperature;BMP_pressure;BME280_temperature;BME280_humidity;BME280_pressure;Samples;Min_cycle;Max_cycle;Signal;HPM_P1;HPM_P2
2023/07/29 00:00:19;;;;;;;5.85;2.80;;;;;;;;;;4931919;28;20506;-77
2023/07/29 00:02:44;;;;;;;4.03;3.20;;;;;;;;;;4933423;28;20032;-77
2023/07/29 00:05:10;;;;;;;4.13;2.88;;;;;;;;;;4931656;29;20056;-77
2023/07/29 00:07:35;;;;;;;3.95;2.70;;;;;;;;;;4929398;28;20040;-77
2023/07/29 00:10:00;;;;;;;3.20;2.90;;;;;;;;;;4929528;28;20046;-77
2023/07/29 00:12:26;;;;;;;3.22;2.90;;;;;;;;;;4929448;28;20403;-78
2023/07/29 00:14:51;;;;;;;3.30;2.97;;;;;;;;;;4933720;28;20027;-78
2023/07/29 00:17:16;;;;;;;2.92;2.70;;;;;;;;;;4932809;29;20077;-77
2023/07/29 00:19:42;;;;;;;4.40;3.10;;;;;;;;;;4930972;28;20032;-78
2023/07/29 00:22:08;;;;;;;4.53;2.90;;;;;;;;;;4930727;28;20040;-77
2023/07/29 00:24:33;;;;;;;6.95;2.72;;;;;;;;;;4930919;28;20089;-77
2023/07/29 00:26:59;;;;;;;3.13;2.83;;;;;;;;;;4931146;28;20035;-77
2023/07/29 00:29:24;;;;;;;3.53;3.08;;;;;;;;;;4931559;28;20046;-77
2023/07/29 00:31:49;;;;;;;5.43;3.28;;;;;;;;;;4932383;28;20364;-77
2023/07/29 00:34:19;;;;;;;3.85;3.20;;;;;;;;;;4929942;28;20121;-77
2023/07/29 00:36:44;;;;;;;2.97;2.72;;;;;;;;;;4945584;28;20043;-77
2023/07/29 00:39:10;;;;;;;5.05;2.92;;;;;;;;;;4933000;28;20027;-77
2023/07/29 00:41:35;;;;;;;5.53;2.60;;;;;;;;;;4934467;29;20030;-77
2023/07/29 00:44:00;;;;;;;3.85;2.88;;;;;;;;;;4932754;28;20052;-77
2023/07/29 00:46:27;;;;;;;3.33;2.90;;;;;;;;;;4948472;28;20039;-77
2023/07/29 00:48:53;;;;;;;3.38;2.60;;;;;;;;;;4933317;28;20058;-77
2023/07/29 00:51:18;;;;;;;4.47;3.00;;;;;;;;;;4945060;28;20023;-77
2023/07/29 00:53:43;;;;;;;5.43;3.42;;;;;;;;;;4934633;28;20035;-77
2023/07/29 00:56:09;;;;;;;3.33;3.00;;;;;;;;;;4933615;28;20514;-77
2023/07/29 00:58:34;;;;;;;4.88;2.88;;;;;;;;;;4933288;29;20047;-77
2023/07/29 01:00:59;;;;;;;2.65;2.45;;;;;;;;;;4929984;29;20111;-77
2023/07/29 01:03:25;;;;;;;3.15;2.60;;;;;;;;;;4947289;28;20039;-77
2023/07/29 01:06:08;;;;;;;3.30;2.65;;;;;;;;;;4947905;28;20097;-77
2023/07/29 01:08:44;;;;;;;4.05;2.55;;;;;;;;;;5010315;28;20056;-77
2023/07/29 01:11:14;;;;;;;2.58;2.35;;;;;;;;;;5007406;28;20523;-77
2023/07/29 01:13:55;;;;;;;3.08;2.78;;;;;;;;;;4945087;28;20127;-77
2023/07/29 01:16:29;;;;;;;5.15;3.00;;;;;;;;;;4924471;29;20541;-77
2023/07/29 01:18:55;;;;;;;3.63;2.67;;;;;;;;;;4930482;29;20039;-77
2023/07/29 01:21:21;;;;;;;3.63;2.90;;;;;;;;;;4932014;28;20031;-78
2023/07/29 01:23:47;;;;;;;4.50;3.08;;;;;;;;;;4929119;28;20407;-78
2023/07/29 01:26:12;;;;;;;11.23;3.30;;;;;;;;;;4932463;28;20051;-77
2023/07/29 01:28:38;;;;;;;3.25;3.00;;;;;;;;;;4932428;29;20150;-77
2023/07/29 01:31:15;;;;;;;4.10;3.70;;;;;;;;;;4931455;29;20059;-77
2023/07/29 01:33:57;;;;;;;4.53;3.50;;;;;;;;;;4935369;28;20040;-77
2023/07/29 01:36:27;;;;;;;4.25;3.30;;;;;;;;;;4928216;28;22945;-77
2023/07/29 01:38:55;;;;;;;13.05;3.65;;;;;;;;;;4930963;29;20059;-78
2023/07/29 01:41:21;;;;;;;4.70;3.30;;;;;;;;;;4931558;29;20537;-77
2023/07/29 01:43:47;;;;;;;5.75;3.90;;;;;;;;;;4935535;29;20040;-77
2023/07/29 01:46:15;;;;;;;8.70;3.65;;;;;;;;;;4928150;28;20038;-77
2023/07/29 01:48:40;;;;;;;4.43;3.30;;;;;;;;;;4928956;28;20044;-77
2023/07/29 01:51:06;;;;;;;4.07;2.92;;;;;;;;;;4927961;29;20363;-77
2023/07/29 01:53:32;;;;;;;4.90;3.20;;;;;;;;;;4933036;29;20036;-77
2023/07/29 01:55:57;;;;;;;6.15;3.38;;;;;;;;;;4929991;29;20056;-77
2023/07/29 01:58:23;;;;;;;5.22;3.50;;;;;;;;;;4931266;28;20060;-77
2023/07/29 02:00:49;;;;;;;2.88;2.67;;;;;;;;;;4931146;28;20047;-77
2023/07/29 02:03:14;;;;;;;5.38;2.90;;;;;;;;;;4929172;28;20498;-77
2023/07/29 02:05:40;;;;;;;4.28;3.20;;;;;;;;;;4944914;28;20491;-77
2023/07/29 02:08:05;;;;;;;3.33;2.80;;;;;;;;;;4936245;28;20032;-77
2023/07/29 02:10:30;;;;;;;3.42;2.72;;;;;;;;;;4936554;28;20110;-77
2023/07/29 02:12:56;;;;;;;8.38;3.13;;;;;;;;;;4933771;28;20039;-76
2023/07/29 02:15:21;;;;;;;3.97;3.03;;;;;;;;;;4933345;29;20044;-76
2023/07/29 02:17:46;;;;;;;10.00;3.28;;;;;;;;;;4933528;28;20557;-76
2023/07/29 02:20:12;;;;;;;3.92;3.08;;;;;;;;;;4934255;29;20034;-76
2023/07/29 02:22:37;;;;;;;4.95;3.50;;;;;;;;;;4929643;28;20101;-76
2023/07/29 02:25:02;;;;;;;4.70;3.33;;;;;;;;;;4930502;28;20070;-77
2023/07/29 02:27:28;;;;;;;5.75;3.10;;;;;;;;;;4934251;28;20503;-76
2023/07/29 02:29:54;;;;;;;8.95;3.47;;;;;;;;;;4932417;29;20028;-77
2023/07/29 02:32:20;;;;;;;3.88;3.30;;;;;;;;;;4932633;29;20499;-76
2023/07/29 02:34:45;;;;;;;3.92;3.53;;;;;;;;;;4929269;28;20081;-77
2023/07/29 02:37:10;;;;;;;2.72;2.53;;;;;;;;;;4931807;29;20036;-75
2023/07/29 02:39:36;;;;;;;5.63;2.83;;;;;;;;;;4928895;28;20042;-75
2023/07/29 02:42:02;;;;;;;6.18;2.90;;;;;;;;;;4931938;29;20023;-76
2023/07/29 02:44:27;;;;;;;5.10;3.17;;;;;;;;;;4928892;29;20042;-76
2023/07/29 02:46:54;;;;;;;4.15;2.85;;;;;;;;;;4931345;28;20115;-76
2023/07/29 02:49:19;;;;;;;3.25;2.95;;;;;;;;;;4929132;28;20181;-76
2023/07/29 02:51:45;;;;;;;5.47;2.92;;;;;;;;;;4928353;29;21353;-76
2023/07/29 02:54:10;;;;;;;3.53;2.75;;;;;;;;;;4928647;28;20028;-76
2023/07/29 02:56:35;;;;;;;4.07;2.88;;;;;;;;;;4944113;28;20131;-76
2023/07/29 02:59:01;;;;;;;3.20;2.67;;;;;;;;;;4930432;28;20039;-76
2023/07/29 03:01:26;;;;;;;3.03;2.72;;;;;;;;;;4946098;28;20053;-76
2023/07/29 03:03:52;;;;;;;2.97;2.58;;;;;;;;;;4931805;28;20093;-76
2023/07/29 03:06:17;;;;;;;3.17;2.88;;;;;;;;;;4945825;28;20074;-76
2023/07/29 03:08:42;;;;;;;4.85;3.15;;;;;;;;;;4929963;28;20038;-76
2023/07/29 03:11:10;;;;;;;16.83;3.72;;;;;;;;;;4929938;28;20046;-76
2023/07/29 03:13:35;;;;;;;5.38;3.33;;;;;;;;;;4927637;29;20634;-75
2023/07/29 03:16:05;;;;;;;7.18;3.45;;;;;;;;;;4930034;28;20047;-76
2023/07/29 03:18:31;;;;;;;4.32;3.20;;;;;;;;;;4941866;28;20049;-76
2023/07/29 03:20:56;;;;;;;3.55;3.03;;;;;;;;;;4930847;28;20020;-76
2023/07/29 03:23:21;;;;;;;7.22;3.45;;;;;;;;;;4930480;28;20031;-76
2023/07/29 03:25:49;;;;;;;4.35;3.30;;;;;;;;;;4931760;28;20496;-76
2023/07/29 03:28:14;;;;;;;3.58;3.28;;;;;;;;;;4927170;28;20039;-76
2023/07/29 03:30:39;;;;;;;4.15;3.60;;;;;;;;;;4929523;28;20535;-76
2023/07/29 03:33:05;;;;;;;3.83;3.13;;;;;;;;;;4943090;28;20044;-76
2023/07/29 03:35:30;;;;;;;5.60;3.88;;;;;;;;;;4928570;28;20028;-76
2023/07/29 03:37:56;;;;;;;4.50;3.90;;;;;;;;;;4943246;28;20038;-76
2023/07/29 03:40:21;;;;;;;5.22;3.72;;;;;;;;;;4928179;28;20040;-77
2023/07/29 03:42:46;;;;;;;4.82;4.00;;;;;;;;;;4943944;28;20027;-77
2023/07/29 03:45:12;;;;;;;6.43;3.63;;;;;;;;;;4925654;28;20024;-77
2023/07/29 03:47:37;;;;;;;5.05;4.00;;;;;;;;;;4928507;28;20027;-77
2023/07/29 03:50:02;;;;;;;7.13;4.68;;;;;;;;;;4930097;28;20543;-77
2023/07/29 03:52:28;;;;;;;5.45;4.13;;;;;;;;;;4926999;28;20086;-77
2023/07/29 03:54:53;;;;;;;5.70;4.45;;;;;;;;;;4943008;28;20504;-77
2023/07/29 03:57:18;;;;;;;4.97;4.30;;;;;;;;;;4928311;29;20069;-77
2023/07/29 03:59:43;;;;;;;6.28;4.65;;;;;;;;;;4930285;28;20039;-77
2023/07/29 04:02:09;;;;;;;5.68;4.20;;;;;;;;;;4930239;28;20430;-77
2023/07/29 04:04:34;;;;;;;4.10;3.65;;;;;;;;;;4929799;29;20036;-77
2023/07/29 04:07:00;;;;;;;7.22;3.60;;;;;;;;;;4931448;29;20032;-77
2023/07/29 04:09:25;;;;;;;5.63;3.35;;;;;;;;;;4925911;28;20031;-76
2023/07/29 04:11:51;;;;;;;4.45;3.30;;;;;;;;;;4928094;28;20023;-76
2023/07/29 04:14:16;;;;;;;4.28;2.95;;;;;;;;;;4927518;28;20519;-77
2023/07/29 04:16:41;;;;;;;3.08;2.78;;;;;;;;;;4945991;28;20047;-76
2023/07/29 04:19:07;;;;;;;2.75;2.55;;;;;;;;;;4925641;28;20061;-77
2023/07/29 04:21:32;;;;;;;6.35;2.65;;;;;;;;;;4929174;29;20873;-77
2023/07/29 04:23:57;;;;;;;3.05;2.53;;;;;;;;;;4942654;28;20146;-77
2023/07/29 04:26:23;;;;;;;2.10;1.98;;;;;;;;;;4929408;29;20500;-77
2023/07/29 04:28:48;;;;;;;8.10;3.03;;;;;;;;;;4926370;28;20123;-77
2023/07/29 04:31:13;;;;;;;2.60;2.40;;;;;;;;;;4927213;28;20529;-77
2023/07/29 04:33:39;;;;;;;3.10;2.90;;;;;;;;;;4929926;28;20043;-77
2023/07/29 04:36:04;;;;;;;3.63;2.20;;;;;;;;;;4926465;29;20028;-77
2023/07/29 04:38:33;;;;;;;2.40;2.20;;;;;;;;;;4929730;29;20026;-77
2023/07/29 04:41:02;;;;;;;7.32;2.58;;;;;;;;;;4925804;29;20115;-77
2023/07/29 04:43:31;;;;;;;6.30;2.33;;;;;;;;;;4929955;28;20509;-78
2023/07/29 04:45:57;;;;;;;2.63;2.42;;;;;;;;;;4927240;28;20036;-77
2023/07/29 04:48:22;;;;;;;3.55;2.00;;;;;;;;;;4926011;28;20044;-77
2023/07/29 04:50:48;;;;;;;2.40;2.20;;;;;;;;;;4951089;28;20542;-77
2023/07/29 04:53:13;;;;;;;2.38;1.92;;;;;;;;;;4936960;28;20044;-77
2023/07/29 04:55:40;;;;;;;2.60;2.15;;;;;;;;;;4931032;28;20555;-77
2023/07/29 04:58:05;;;;;;;2.45;2.17;;;;;;;;;;4928004;29;20038;-76
2023/07/29 05:00:30;;;;;;;2.00;1.90;;;;;;;;;;4926135;28;20118;-77
2023/07/29 05:02:56;;;;;;;2.00;1.90;;;;;;;;;;4932059;29;20020;-77
2023/07/29 05:05:21;;;;;;;2.38;2.10;;;;;;;;;;4944485;28;20027;-77
2023/07/29 05:07:46;;;;;;;2.58;2.30;;;;;;;;;;4926367;29;20652;-77
2023/07/29 05:10:12;;;;;;;3.55;2.25;;;;;;;;;;4941302;28;20036;-77
2023/07/29 05:12:37;;;;;;;5.90;2.72;;;;;;;;;;4927391;29;20108;-77
2023/07/29 05:15:02;;;;;;;3.13;2.60;;;;;;;;;;4927848;28;20024;-77
2023/07/29 05:17:28;;;;;;;4.05;2.80;;;;;;;;;;4929322;28;20047;-77
2023/07/29 05:19:53;;;;;;;2.85;2.45;;;;;;;;;;4938174;28;20101;-77
2023/07/29 05:22:18;;;;;;;3.03;2.78;;;;;;;;;;4934731;28;20770;-76
2023/07/29 05:24:44;;;;;;;6.72;3.15;;;;;;;;;;4936898;28;20104;-78
2023/07/29 05:27:09;;;;;;;4.20;3.50;;;;;;;;;;4935377;28;21178;-77
2023/07/29 05:29:34;;;;;;;3.22;2.90;;;;;;;;;;4945373;28;20034;-80
2023/07/29 05:32:00;;;;;;;5.80;3.33;;;;;;;;;;4934930;28;20040;-77
2023/07/29 05:34:26;;;;;;;4.90;3.03;;;;;;;;;;4928839;28;20043;-77
2023/07/29 05:36:51;;;;;;;3.40;3.10;;;;;;;;;;4931189;28;20052;-77
2023/07/29 05:39:17;;;;;;;3.65;3.10;;;;;;;;;;4930560;28;20503;-77
2023/07/29 05:41:42;;;;;;;4.03;3.45;;;;;;;;;;4938441;28;20032;-77
2023/07/29 05:44:07;;;;;;;4.95;3.35;;;;;;;;;;4950022;28;20036;-77
2023/07/29 05:46:33;;;;;;;3.50;3.10;;;;;;;;;;4938391;28;20044;-77
2023/07/29 05:48:58;;;;;;;3.33;3.03;;;;;;;;;;4934643;28;20061;-77
2023/07/29 05:51:23;;;;;;;4.28;3.63;;;;;;;;;;4930803;28;20047;-77
2023/07/29 05:53:49;;;;;;;3.95;3.00;;;;;;;;;;4956629;28;20027;-77
2023/07/29 05:56:14;;;;;;;3.65;3.05;;;;;;;;;;4934487;28;20036;-77
2023/07/29 05:58:39;;;;;;;4.75;2.88;;;;;;;;;;4934367;28;20113;-77
2023/07/29 06:01:04;;;;;;;3.97;3.10;;;;;;;;;;4938649;28;20127;-77
2023/07/29 06:03:30;;;;;;;7.28;3.80;;;;;;;;;;4927218;28;20039;-77
2023/07/29 06:05:55;;;;;;;5.35;3.00;;;;;;;;;;4935245;28;20035;-79
2023/07/29 06:08:20;;;;;;;7.97;4.50;;;;;;;;;;4940360;28;20526;-77
2023/07/29 06:10:45;;;;;;;4.18;3.50;;;;;;;;;;4933998;28;20039;-78
2023/07/29 06:13:11;;;;;;;5.95;4.07;;;;;;;;;;4931383;28;20040;-77
2023/07/29 06:15:36;;;;;;;4.50;3.90;;;;;;;;;;4930235;28;20519;-77
2023/07/29 06:18:01;;;;;;;6.63;4.00;;;;;;;;;;4937685;28;20031;-76
2023/07/29 06:20:27;;;;;;;7.75;4.40;;;;;;;;;;4931576;28;20403;-76
2023/07/29 06:22:52;;;;;;;5.30;4.10;;;;;;;;;;4949780;28;20588;-76
2023/07/29 06:25:17;;;;;;;5.72;4.75;;;;;;;;;;4936859;28;20032;-78
2023/07/29 06:27:43;;;;;;;10.80;4.90;;;;;;;;;;4930164;28;20535;-78
2023/07/29 06:30:08;;;;;;;5.57;4.60;;;;;;;;;;4962642;28;20503;-78
2023/07/29 06:32:34;;;;;;;7.38;4.97;;;;;;;;;;4940188;28;20031;-78
2023/07/29 06:35:00;;;;;;;5.07;4.05;;;;;;;;;;4933868;28;20142;-78
2023/07/29 06:37:25;;;;;;;4.93;3.53;;;;;;;;;;4937155;28;20072;-78
2023/07/29 06:39:50;;;;;;;7.57;4.00;;;;;;;;;;4937351;28;20324;-78
2023/07/29 06:42:15;;;;;;;3.60;3.30;;;;;;;;;;4931599;28;20027;-78
2023/07/29 06:44:41;;;;;;;3.95;3.55;;;;;;;;;;4939268;28;20467;-78
2023/07/29 06:47:06;;;;;;;4.70;3.45;;;;;;;;;;4935639;28;20039;-78
2023/07/29 06:49:32;;;;;;;6.47;3.67;;;;;;;;;;4928984;28;20039;-78
2023/07/29 06:51:57;;;;;;;3.63;3.15;;;;;;;;;;4929261;28;20450;-77
2023/07/29 06:54:26;;;;;;;6.82;3.30;;;;;;;;;;4929695;28;20050;-78
2023/07/29 06:56:51;;;;;;;4.13;3.10;;;;;;;;;;4946463;28;20081;-78
2023/07/29 06:59:17;;;;;;;4.63;3.22;;;;;;;;;;4940844;28;20044;-78
2023/07/29 07:01:42;;;;;;;4.90;3.70;;;;;;;;;;4937015;28;20055;-78
2023/07/29 07:04:07;;;;;;;4.03;3.28;;;;;;;;;;4932836;28;20141;-77
2023/07/29 07:06:32;;;;;;;4.25;3.20;;;;;;;;;;4936321;28;20044;-78
2023/07/29 07:08:58;;;;;;;5.40;3.28;;;;;;;;;;4931464;28;20103;-78
2023/07/29 07:11:23;;;;;;;2.75;2.55;;;;;;;;;;4928861;28;20031;-78
2023/07/29 07:13:48;;;;;;;4.43;3.72;;;;;;;;;;4944015;28;20419;-77
2023/07/29 07:16:14;;;;;;;4.00;3.45;;;;;;;;;;4936336;28;20500;-77
2023/07/29 07:18:39;;;;;;;5.28;2.60;;;;;;;;;;4937991;28;20048;-77
2023/07/29 07:21:04;;;;;;;3.15;2.80;;;;;;;;;;4942853;28;20524;-77
2023/07/29 07:23:30;;;;;;;2.65;2.45;;;;;;;;;;4942637;28;20034;-78
2023/07/29 07:25:55;;;;;;;2.60;2.40;;;;;;;;;;4945288;28;20037;-80
2023/07/29 07:28:20;;;;;;;2.88;2.67;;;;;;;;;;4929088;28;20515;-80
2023/07/29 07:30:45;;;;;;;4.32;3.20;;;;;;;;;;4928022;28;20035;-78
2023/07/29 07:33:11;;;;;;;3.85;2.67;;;;;;;;;;4928218;28;20391;-78
2023/07/29 07:35:36;;;;;;;3.85;2.92;;;;;;;;;;4930143;28;20136;-78
2023/07/29 07:38:03;;;;;;;3.72;2.92;;;;;;;;;;4927450;28;20043;-78
2023/07/29 07:40:29;;;;;;;2.85;2.63;;;;;;;;;;4927331;28;20027;-79
2023/07/29 07:42:54;;;;;;;5.03;2.85;;;;;;;;;;4928072;28;20446;-78
2023/07/29 07:45:20;;;;;;;2.75;2.55;;;;;;;;;;4927496;28;20515;-78
2023/07/29 07:47:46;;;;;;;2.58;2.35;;;;;;;;;;4943221;28;20174;-78
2023/07/29 07:50:11;;;;;;;8.57;2.90;;;;;;;;;;4931800;28;20138;-79
2023/07/29 07:52:37;;;;;;;3.90;2.85;;;;;;;;;;4942455;28;20071;-78
2023/07/29 07:55:02;;;;;;;7.25;2.70;;;;;;;;;;4941457;28;20044;-78
2023/07/29 07:57:27;;;;;;;3.83;2.90;;;;;;;;;;4926845;28;20516;-78
2023/07/29 07:59:53;;;;;;;5.50;2.72;;;;;;;;;;4926510;28;20023;-79
2023/07/29 08:02:18;;;;;;;3.50;2.97;;;;;;;;;;4935416;28;20067;-78
2023/07/29 08:04:44;;;;;;;4.50;2.83;;;;;;;;;;4941288;28;20043;-77
2023/07/29 08:07:09;;;;;;;4.13;2.85;;;;;;;;;;4936413;28;20080;-77
2023/07/29 08:09:35;;;;;;;4.20;2.78;;;;;;;;;;4947887;28;20113;-78
2023/07/29 08:12:00;;;;;;;4.43;2.72;;;;;;;;;;4933349;28;20622;-78
2023/07/29 08:14:26;;;;;;;3.35;2.80;;;;;;;;;;4931594;28;20079;-78
2023/07/29 08:16:51;;;;;;;4.00;2.90;;;;;;;;;;4927751;28;20455;-78
2023/07/29 08:19:17;;;;;;;2.72;2.53;;;;;;;;;;4950437;28;20040;-78
2023/07/29 08:21:42;;;;;;;3.88;2.78;;;;;;;;;;4926976;28;20048;-78
2023/07/29 08:24:07;;;;;;;3.03;2.72;;;;;;;;;;4927833;29;20038;-78
2023/07/29 08:26:32;;;;;;;3.78;2.80;;;;;;;;;;4933588;28;20036;-77
2023/07/29 08:28:58;;;;;;;4.00;2.70;;;;;;;;;;4936378;28;20040;-78
2023/07/29 08:31:23;;;;;;;2.80;2.60;;;;;;;;;;4935339;28;20081;-79
2023/07/29 08:33:48;;;;;;;2.60;2.40;;;;;;;;;;4942670;28;20049;-78
2023/07/29 08:36:14;;;;;;;5.38;2.80;;;;;;;;;;4947191;28;20034;-78
2023/07/29 08:38:39;;;;;;;6.47;2.60;;;;;;;;;;4937174;28;20149;-78
2023/07/29 08:41:19;;;;;;;7.10;2.75;;;;;;;;;;4926450;28;20511;-78
2023/07/29 08:44:25;;;;;;;3.85;2.65;;;;;;;;;;4931249;28;20036;-78
2023/07/29 08:46:51;;;;;;;2.75;2.50;;;;;;;;;;4937858;28;20545;-78
2023/07/29 08:49:22;;;;;;;4.82;2.47;;;;;;;;;;4942530;28;20127;-78
2023/07/29 08:51:49;;;;;;;3.10;2.65;;;;;;;;;;4943275;28;20047;-77
2023/07/29 08:54:15;;;;;;;3.75;2.28;;;;;;;;;;4934029;28;20074;-77
2023/07/29 08:56:41;;;;;;;5.82;2.95;;;;;;;;;;4931306;29;20024;-76
2023/07/29 08:59:07;;;;;;;2.67;2.47;;;;;;;;;;4930762;29;20040;-76
2023/07/29 09:01:33;;;;;;;3.17;2.42;;;;;;;;;;4930806;28;20039;-77
2023/07/29 09:03:59;;;;;;;3.17;2.60;;;;;;;;;;4930748;29;20051;-77
2023/07/29 09:06:25;;;;;;;5.07;2.75;;;;;;;;;;4929769;29;20048;-78
2023/07/29 09:08:53;;;;;;;2.58;2.35;;;;;;;;;;4932445;29;20020;-77
2023/07/29 09:11:19;;;;;;;2.97;2.70;;;;;;;;;;4933381;29;20063;-78
2023/07/29 09:13:44;;;;;;;4.25;2.60;;;;;;;;;;4933591;28;20039;-78
2023/07/29 09:16:10;;;;;;;2.83;2.47;;;;;;;;;;4934198;29;20032;-78
2023/07/29 09:18:35;;;;;;;2.60;2.40;;;;;;;;;;4951119;28;20130;-77
2023/07/29 09:21:01;;;;;;;2.65;2.45;;;;;;;;;;4950879;28;20035;-78
2023/07/29 09:23:27;;;;;;;4.63;2.60;;;;;;;;;;4937082;29;20075;-77
2023/07/29 09:26:01;;;;;;;5.32;3.05;;;;;;;;;;4936456;28;20403;-78
2023/07/29 09:28:27;;;;;;;;;;;;;;;;;;4935802;29;20039;-77
2023/07/29 09:30:53;;;;;;;7.63;2.53;;;;;;;;;;4949275;28;20371;-77
2023/07/29 09:33:18;;;;;;;2.63;2.42;;;;;;;;;;4934141;29;20028;-76
2023/07/29 09:35:44;;;;;;;2.78;2.50;;;;;;;;;;4934606;29;20810;-77
2023/07/29 09:38:14;;;;;;;2.67;2.40;;;;;;;;;;4948696;28;20396;-77
2023/07/29 09:40:41;;;;;;;3.42;2.40;;;;;;;;;;4933616;28;20101;-76
2023/07/29 09:43:09;;;;;;;3.58;2.80;;;;;;;;;;4933828;28;20040;-77
2023/07/29 09:45:35;;;;;;;3.30;2.72;;;;;;;;;;4934135;29;20036;-78
2023/07/29 09:48:02;;;;;;;7.55;2.50;;;;;;;;;;4934156;29;20093;-77
2023/07/29 09:50:28;;;;;;;3.25;2.40;;;;;;;;;;4931999;29;20091;-77
2023/07/29 09:52:55;;;;;;;2.90;2.70;;;;;;;;;;4933477;29;20047;-77
2023/07/29 09:55:24;;;;;;;5.05;2.80;;;;;;;;;;4933823;29;20554;-77
2023/07/29 09:58:03;;;;;;;4.78;2.92;;;;;;;;;;4931878;29;20047;-76
2023/07/29 10:00:30;;;;;;;4.70;2.75;;;;;;;;;;4933655;28;20036;-77
2023/07/29 10:02:57;;;;;;;6.13;2.90;;;;;;;;;;4934371;29;20020;-77
2023/07/29 10:05:25;;;;;;;4.55;2.92;;;;;;;;;;4933682;29;20035;-78
2023/07/29 10:07:51;;;;;;;5.43;2.60;;;;;;;;;;4933430;29;20272;-77
2023/07/29 10:10:17;;;;;;;3.00;2.63;;;;;;;;;;4933713;28;20043;-77
2023/07/29 10:12:43;;;;;;;3.13;2.50;;;;;;;;;;4939595;29;20570;-76
2023/07/29 10:15:08;;;;;;;2.90;2.70;;;;;;;;;;4933713;29;20059;-76
2023/07/29 10:17:36;;;;;;;3.20;2.35;;;;;;;;;;4934479;29;20012;-77
2023/07/29 10:20:07;;;;;;;5.55;2.28;;;;;;;;;;4932463;29;20519;-77
2023/07/29 10:22:52;;;;;;;2.92;2.40;;;;;;;;;;4933854;28;20031;-77
2023/07/29 10:25:39;;;;;;;3.72;2.67;;;;;;;;;;4933452;28;20035;-78
2023/07/29 10:28:06;;;;;;;9.05;2.60;;;;;;;;;;4925941;29;20036;-77
2023/07/29 10:30:32;;;;;;;2.97;2.33;;;;;;;;;;4947792;28;20079;-78
2023/07/29 10:33:01;;;;;;;2.72;2.53;;;;;;;;;;4948734;28;20078;-77
2023/07/29 10:35:26;;;;;;;4.50;2.90;;;;;;;;;;4933631;28;20046;-77
2023/07/29 10:37:53;;;;;;;5.30;3.08;;;;;;;;;;4933049;28;20032;-78
2023/07/29 10:40:19;;;;;;;4.35;2.60;;;;;;;;;;4948069;28;20540;-77
2023/07/29 10:43:10;;;;;;;4.45;2.40;;;;;;;;;;4933020;28;20483;-77
2023/07/29 10:45:40;;;;;;;3.33;3.00;;;;;;;;;;4932968;28;20097;-76
2023/07/29 10:48:32;;;;;;;3.78;2.45;;;;;;;;;;4932862;28;20044;-76
2023/07/29 10:51:26;;;;;;;2.80;2.47;;;;;;;;;;4910190;29;20047;-77
2023/07/29 10:54:14;;;;;;;4.38;2.78;;;;;;;;;;4932744;29;20427;-77
2023/07/29 10:56:47;;;;;;;2.50;2.30;;;;;;;;;;4948210;29;20519;-77
2023/07/29 10:59:12;;;;;;;2.60;2.35;;;;;;;;;;4933515;29;20110;-77
2023/07/29 11:01:44;;;;;;;3.58;2.10;;;;;;;;;;4931558;28;20059;-77
2023/07/29 11:04:19;;;;;;;5.78;2.15;;;;;;;;;;4954812;28;20090;-78
2023/07/29 11:07:03;;;;;;;2.40;2.20;;;;;;;;;;4928422;28;20443;-77
2023/07/29 11:09:59;;;;;;;4.85;2.53;;;;;;;;;;4938738;28;20662;-77
2023/07/29 11:12:45;;;;;;;3.75;2.60;;;;;;;;;;4928964;28;20321;-77
2023/07/29 11:15:10;;;;;;;2.15;1.90;;;;;;;;;;4946481;28;20286;-77
2023/07/29 11:17:43;;;;;;;2.85;2.42;;;;;;;;;;4931698;28;20166;-77
2023/07/29 11:20:09;;;;;;;2.80;2.60;;;;;;;;;;4941661;28;20062;-77
2023/07/29 11:22:35;;;;;;;2.92;2.30;;;;;;;;;;4937246;28;20052;-77
2023/07/29 11:25:01;;;;;;;4.35;1.98;;;;;;;;;;4945052;28;20512;-77
2023/07/29 11:27:26;;;;;;;3.00;2.28;;;;;;;;;;4945981;28;20043;-77
2023/07/29 11:30:12;;;;;;;2.70;2.38;;;;;;;;;;4928419;28;20031;-78
2023/07/29 11:32:39;;;;;;;2.28;2.10;;;;;;;;;;4928404;28;20075;-78
2023/07/29 11:35:10;;;;;;;2.80;2.47;;;;;;;;;;4943939;28;20085;-78
2023/07/29 11:37:37;;;;;;;2.03;1.92;;;;;;;;;;4928370;28;20032;-78
2023/07/29 11:40:04;;;;;;;6.38;2.50;;;;;;;;;;4928328;28;20399;-78
2023/07/29 11:42:32;;;;;;;2.60;2.40;;;;;;;;;;4928433;28;20043;-78
2023/07/29 11:44:58;;;;;;;4.20;2.40;;;;;;;;;;4929641;29;20523;-78
2023/07/29 11:47:23;;;;;;;2.38;2.17;;;;;;;;;;4928990;28;20044;-79
2023/07/29 11:49:49;;;;;;;3.13;2.28;;;;;;;;;;4944495;28;20108;-78
2023/07/29 11:52:18;;;;;;;2.65;2.45;;;;;;;;;;4928981;28;20048;-78
2023/07/29 11:54:44;;;;;;;2.75;2.28;;;;;;;;;;4946093;28;20522;-78
2023/07/29 11:57:09;;;;;;;2.65;2.28;;;;;;;;;;4928897;28;20020;-78
2023/07/29 11:59:36;;;;;;;2.88;2.20;;;;;;;;;;4943852;28;20383;-78
2023/07/29 12:02:06;;;;;;;2.47;2.28;;;;;;;;;;4930948;28;20054;-79
2023/07/29 12:04:33;;;;;;;2.50;2.30;;;;;;;;;;4927613;28;20040;-78
2023/07/29 12:06:58;;;;;;;3.58;2.35;;;;;;;;;;4927481;28;20055;-78
2023/07/29 12:09:26;;;;;;;3.25;2.60;;;;;;;;;;4929067;28;20028;-78
2023/07/29 12:11:52;;;;;;;6.80;2.80;;;;;;;;;;4943894;28;20036;-78
2023/07/29 12:14:17;;;;;;;2.75;2.53;;;;;;;;;;4929523;28;20128;-78
2023/07/29 12:16:43;;;;;;;2.80;2.60;;;;;;;;;;4944085;28;20771;-78
2023/07/29 12:19:11;;;;;;;4.78;2.80;;;;;;;;;;4929473;28;20031;-79
2023/07/29 12:21:36;;;;;;;2.38;2.22;;;;;;;;;;4943997;28;20063;-78
2023/07/29 12:24:02;;;;;;;2.78;2.53;;;;;;;;;;4929454;28;20024;-78
2023/07/29 12:26:29;;;;;;;2.80;2.60;;;;;;;;;;4930969;28;20052;-79
2023/07/29 12:28:56;;;;;;;2.83;2.60;;;;;;;;;;4926955;28;20032;-78
2023/07/29 12:31:21;;;;;;;2.95;2.70;;;;;;;;;;4932187;28;20059;-78
2023/07/29 12:33:46;;;;;;;2.70;2.40;;;;;;;;;;4929923;28;20121;-79
2023/07/29 12:36:12;;;;;;;2.60;2.40;;;;;;;;;;4929003;28;20670;-78
2023/07/29 12:38:37;;;;;;;5.03;2.28;;;;;;;;;;4944657;28;20513;-78
2023/07/29 12:41:02;;;;;;;2.50;2.30;;;;;;;;;;4944456;28;20119;-78
2023/07/29 12:43:28;;;;;;;2.80;2.60;;;;;;;;;;4943233;28;20042;-79
2023/07/29 12:45:54;;;;;;;2.50;2.30;;;;;;;;;;4926343;28;20063;-79
2023/07/29 12:48:19;;;;;;;3.80;2.78;;;;;;;;;;4923340;28;20467;-77
2023/07/29 12:50:45;;;;;;;2.60;2.40;;;;;;;;;;4925908;28;20474;-78
2023/07/29 12:53:10;;;;;;;2.75;2.55;;;;;;;;;;4940617;28;20040;-78
2023/07/29 12:55:36;;;;;;;3.40;3.10;;;;;;;;;;4927058;28;20115;-77
2023/07/29 12:58:01;;;;;;;3.10;2.80;;;;;;;;;;4924477;28;20071;-78
2023/07/29 13:00:27;;;;;;;2.50;2.30;;;;;;;;;;4925326;28;20036;-78
2023/07/29 13:02:52;;;;;;;2.90;2.58;;;;;;;;;;4926874;28;20033;-77
2023/07/29 13:05:17;;;;;;;3.40;3.08;;;;;;;;;;4925768;28;20040;-77
2023/07/29 13:07:43;;;;;;;3.00;2.70;;;;;;;;;;4924350;28;20138;-76
2023/07/29 13:10:09;;;;;;;4.22;2.75;;;;;;;;;;4939388;28;20039;-77
2023/07/29 13:12:34;;;;;;;5.13;2.70;;;;;;;;;;4922473;28;20056;-77
2023/07/29 13:15:00;;;;;;;2.53;2.33;;;;;;;;;;4941466;28;20060;-78
2023/07/29 13:17:25;;;;;;;2.75;2.50;;;;;;;;;;4927952;28;20038;-78
2023/07/29 13:19:51;;;;;;;3.53;2.63;;;;;;;;;;4925885;28;20063;-78
2023/07/29 13:22:17;;;;;;;3.05;2.60;;;;;;;;;;4926657;28;20115;-78
2023/07/29 13:24:42;;;;;;;2.88;2.47;;;;;;;;;;4929420;28;20507;-78
2023/07/29 13:27:07;;;;;;;2.65;2.45;;;;;;;;;;4919662;28;20063;-78
2023/07/29 13:29:33;;;;;;;4.20;2.20;;;;;;;;;;4914310;28;20170;-78
2023/07/29 13:31:58;;;;;;;5.35;2.78;;;;;;;;;;4927806;28;20121;-78
2023/07/29 13:34:23;;;;;;;2.40;2.20;;;;;;;;;;4925224;28;20035;-78
2023/07/29 13:36:48;;;;;;;3.40;2.40;;;;;;;;;;4932598;28;20207;-78
2023/07/29 13:39:14;;;;;;;4.25;2.60;;;;;;;;;;4936923;28;20369;-78
2023/07/29 13:41:39;;;;;;;2.70;2.50;;;;;;;;;;4936387;28;20027;-77
2023/07/29 13:44:04;;;;;;;3.30;2.70;;;;;;;;;;4934741;28;20582;-78
2023/07/29 13:46:30;;;;;;;2.90;2.45;;;;;;;;;;4931197;28;20581;-78
2023/07/29 13:48:55;;;;;;;4.40;2.08;;;;;;;;;;4941661;28;20044;-77
2023/07/29 13:51:20;;;;;;;2.42;2.20;;;;;;;;;;4931130;28;20316;-78
2023/07/29 13:53:46;;;;;;;2.47;2.28;;;;;;;;;;4924872;28;20032;-78
2023/07/29 13:56:11;;;;;;;3.97;2.50;;;;;;;;;;4941034;28;20043;-78
2023/07/29 13:58:37;;;;;;;3.30;2.10;;;;;;;;;;4934844;28;20119;-78
2023/07/29 14:01:02;;;;;;;3.20;2.70;;;;;;;;;;4929862;28;20040;-79
2023/07/29 14:03:27;;;;;;;4.22;2.55;;;;;;;;;;4936469;28;20033;-79
2023/07/29 14:05:52;;;;;;;3.88;2.90;;;;;;;;;;4943574;28;20023;-78
2023/07/29 14:08:18;;;;;;;5.65;3.50;;;;;;;;;;4935125;28;20107;-78
2023/07/29 14:10:43;;;;;;;3.60;3.30;;;;;;;;;;4956786;28;20042;-79
2023/07/29 14:13:08;;;;;;;5.75;3.28;;;;;;;;;;4945099;28;20036;-79
2023/07/29 14:15:34;;;;;;;4.63;2.88;;;;;;;;;;4928710;28;20066;-79
2023/07/29 14:17:59;;;;;;;4.82;3.03;;;;;;;;;;4942497;28;20025;-79
2023/07/29 14:20:24;;;;;;;4.07;3.03;;;;;;;;;;4958527;28;20082;-79
2023/07/29 14:22:50;;;;;;;5.15;3.03;;;;;;;;;;4956989;28;20031;-78
2023/07/29 14:25:15;;;;;;;2.75;2.55;;;;;;;;;;4941457;28;20031;-78
2023/07/29 14:27:41;;;;;;;3.20;2.90;;;;;;;;;;4937314;28;20314;-78
2023/07/29 14:30:07;;;;;;;4.05;2.95;;;;;;;;;;4930777;28;20054;-77
2023/07/29 14:32:32;;;;;;;2.83;2.58;;;;;;;;;;4931863;28;20586;-78
2023/07/29 14:35:03;;;;;;;3.22;2.72;;;;;;;;;;4932159;28;20051;-78
2023/07/29 14:37:28;;;;;;;5.25;3.25;;;;;;;;;;4936417;28;20023;-78
2023/07/29 14:39:54;;;;;;;3.08;2.63;;;;;;;;;;4948385;28;20051;-79